Time;durP1;ratioP1;P1;durP2;ratioP2;P2;SDS_P1;SDS_P2;PMS_P1;PMS_P2;Temp;Humidity;BMP_temperature;BMP_pressure;BME280_temperature;BME280_humidity;BME280_pressure;Samples;Min_cycle;Max_cycle;Signal;HPM_P1;HPM_P2
2022/06/11 00:00:21;;;;;;;9.63;6.95;;;;;;;15.15;77.51;99090.40;1789166;80;27446;-58
2022/06/11 00:02:47;;;;;;;13.93;6.47;;;;;;;15.08;77.48;99089.30;1789033;80;25474;-58
2022/06/11 00:05:14;;;;;;;8.40;6.25;;;;;;;15.02;77.70;99090.86;1789017;79;25399;-61
2022/06/11 00:07:41;;;;;;;9.85;6.95;;;;;;;14.97;78.06;99088.28;1788825;80;25959;-59
2022/06/11 00:10:10;;;;;;;8.05;6.90;;;;;;;14.97;78.06;99088.28;1789154;79;25653;-57
2022/06/11 00:12:38;;;;;;;9.98;6.72;;;;;;;15.07;77.87;99093.19;1789185;79;27436;-57
2022/06/11 00:15:06;;;;;;;9.38;7.15;;;;;;;15.04;78.02;99085.83;1788795;80;25642;-57
2022/06/11 00:17:34;;;;;;;9.68;6.92;;;;;;;15.08;77.86;99096.99;1789166;80;25439;-57
2022/06/11 00:20:00;;;;;;;7.70;6.85;;;;;;;15.08;78.00;99103.89;1789187;80;26669;-57
2022/06/11 00:22:27;;;;;;;10.15;7.17;;;;;;;15.10;77.67;99092.52;1789141;80;25589;-58
2022/06/11 00:24:53;;;;;;;11.45;7.15;;;;;;;15.10;77.67;99092.52;1789150;80;27476;-57
2022/06/11 00:27:21;;;;;;;10.38;7.65;;;;;;;15.06;78.14;99100.67;1789201;80;26207;-57
2022/06/11 00:29:48;;;;;;;13.45;7.75;;;;;;;15.04;78.03;99093.29;1789114;80;25679;-57
2022/06/11 00:32:16;;;;;;;16.17;8.40;;;;;;;15.01;78.13;99093.95;1788784;80;25746;-57
2022/06/11 00:34:43;;;;;;;15.48;8.40;;;;;;;14.97;78.14;99095.77;1789374;80;25395;-57
2022/06/11 00:37:12;;;;;;;10.18;7.55;;;;;;;14.85;77.81;99088.99;1788946;79;27415;-59
2022/06/11 00:39:40;;;;;;;8.00;7.20;;;;;;;14.90;78.07;99099.03;1789025;80;25734;-58
2022/06/11 00:42:14;;;;;;;12.80;7.45;;;;;;;14.82;77.95;99104.05;1789147;79;25688;-59
2022/06/11 00:44:42;;;;;;;11.85;7.17;;;;;;;14.75;78.19;99106.71;1789148;79;26683;-58
2022/06/11 00:47:22;;;;;;;10.55;7.70;;;;;;;14.76;78.25;99108.32;1788743;79;25699;-59
2022/06/11 00:49:53;;;;;;;11.93;8.18;;;;;;;14.82;78.32;99108.18;1789182;80;27431;-58
2022/06/11 00:52:33;;;;;;;10.50;7.67;;;;;;;14.84;78.40;99112.78;1787343;79;25652;-58
2022/06/11 00:55:13;;;;;;;11.80;7.50;;;;;;;14.87;78.23;99107.98;1773806;80;25868;-58
2022/06/11 00:58:03;;;;;;;13.88;7.78;;;;;;;14.85;78.24;99093.72;1789203;80;25684;-58
2022/06/11 01:00:41;;;;;;;12.33;8.40;;;;;;;14.88;78.07;99108.23;1789285;79;25700;-58
2022/06/11 01:03:10;;;;;;;11.40;7.83;;;;;;;14.75;78.08;99107.27;1788614;79;26947;-57
2022/06/11 01:05:38;;;;;;;;;;;;;;;14.75;78.08;99107.27;1791683;80;25446;-57
2022/06/11 01:08:28;;;;;;;10.88;7.50;;;;;;;14.73;78.08;99109.55;1789195;80;25535;-58
2022/06/11 01:11:22;;;;;;;10.10;7.80;;;;;;;14.60;78.41;99106.69;1788678;80;25747;-59
2022/06/11 01:14:26;;;;;;;10.88;7.62;;;;;;;14.55;78.39;99115.95;1787907;79;25434;-59
2022/06/11 01:17:20;;;;;;;10.88;7.37;;;;;;;14.46;78.54;99107.45;1788815;80;27457;-59
2022/06/11 01:20:18;;;;;;;11.22;7.72;;;;;;;14.47;78.52;99114.58;1789019;79;25768;-59
2022/06/11 01:23:05;;;;;;;10.08;7.28;;;;;;;14.48;78.84;99119.77;1788016;79;25669;-59
2022/06/11 01:26:12;;;;;;;12.82;7.65;;;;;;;14.50;78.56;99116.68;1787681;79;25736;-59
2022/06/11 01:28:59;;;;;;;11.90;7.60;;;;;;;14.46;78.54;99112.97;1788772;79;25581;-61
2022/06/11 01:31:31;;;;;;;9.70;7.28;;;;;;;14.45;78.42;99109.98;1789022;80;27616;-57
2022/06/11 01:34:23;;;;;;;11.18;7.17;;;;;;;14.35;78.71;99113.33;1788960;79;25850;-58
2022/06/11 01:36:55;;;;;;;9.35;7.40;;;;;;;14.32;78.56;99104.89;1788613;80;25651;-58
2022/06/11 01:39:27;;;;;;;10.10;7.28;;;;;;;14.26;78.72;99105.64;1789066;80;25662;-59
2022/06/11 01:42:16;;;;;;;9.13;7.08;;;;;;;14.16;78.75;99098.52;1788310;79;25395;-59
2022/06/11 01:44:45;;;;;;;11.30;7.78;;;;;;;14.08;78.95;99096.03;1787385;79;29462;-58
2022/06/11 01:47:14;;;;;;;10.32;7.28;;;;;;;13.94;79.37;99103.10;1788684;80;25586;-60
2022/06/11 01:49:45;;;;;;;12.58;8.65;;;;;;;13.89;79.42;99109.58;1789154;80;25671;-58
2022/06/11 01:52:23;;;;;;;10.28;7.15;;;;;;;13.75;79.42;99106.99;1789105;80;25723;-59
2022/06/11 01:55:10;;;;;;;10.40;7.22;;;;;;;13.72;79.89;99094.42;1786771;79;25675;-58
2022/06/11 01:58:10;;;;;;;9.78;7.50;;;;;;;13.74;79.91;99102.63;1763559;80;27366;-58
2022/06/11 02:00:42;;;;;;;9.43;6.85;;;;;;;13.70;79.89;99105.77;1778710;80;25588;-59
2022/06/11 02:03:25;;;;;;;10.23;7.20;;;;;;;13.77;79.99;99108.05;1788434;79;25644;-58
2022/06/11 02:06:05;;;;;;;17.32;6.60;;;;;;;13.76;79.64;99108.59;1788209;79;25682;-59
2022/06/11 02:09:16;;;;;;;9.00;6.47;;;;;;;13.75;79.87;99102.04;1789319;79;25428;-59
2022/06/11 02:11:53;;;;;;;11.45;6.90;;;;;;;13.72;79.92;99100.75;1789090;80;27596;-58
2022/06/11 02:14:36;;;;;;;11.20;7.25;;;;;;;13.70;80.05;99103.59;1779425;79;25483;-58
2022/06/11 02:17:14;;;;;;;9.75;7.08;;;;;;;13.61;79.88;99100.26;1788821;79;25454;-62
2022/06/11 02:19:49;;;;;;;9.18;7.35;;;;;;;13.57;80.32;99099.85;1789037;80;26444;-57
2022/06/11 02:22:32;;;;;;;9.38;7.15;;;;;;;13.57;80.16;99102.05;1789342;80;25657;-58
2022/06/11 02:25:12;;;;;;;10.53;7.08;;;;;;;13.52;80.17;99108.52;1787890;79;27074;-58
2022/06/11 02:27:41;;;;;;;9.85;7.40;;;;;;;13.51;80.22;99108.84;1788993;80;25388;-58
2022/06/11 02:30:13;;;;;;;9.50;8.10;;;;;;;13.49;80.28;99109.13;1789216;80;25628;-58
2022/06/11 02:32:40;;;;;;;11.83;7.90;;;;;;;13.49;80.38;99118.77;1789333;79;27777;-58
2022/06/11 02:35:11;;;;;;;12.68;7.92;;;;;;;13.52;80.50;99124.22;1776076;79;25692;-58
2022/06/11 02:37:43;;;;;;;10.03;7.97;;;;;;;13.56;80.38;99115.58;1775271;80;27452;-59
2022/06/11 02:40:15;;;;;;;10.53;7.85;;;;;;;13.60;80.40;99115.73;1776013;80;25600;-58
2022/06/11 02:42:43;;;;;;;10.18;7.37;;;;;;;13.63;80.41;99114.53;1775419;79;25544;-58
2022/06/11 02:45:12;;;;;;;11.28;8.25;;;;;;;13.67;80.34;99114.67;1775907;80;25908;-59
2022/06/11 02:47:45;;;;;;;12.35;8.00;;;;;;;13.68;80.29;99115.72;1775378;80;25665;-61
2022/06/11 02:50:29;;;;;;;10.70;7.92;;;;;;;13.68;80.26;99119.06;1775777;79;27416;-58
2022/06/11 02:52:58;;;;;;;10.50;7.80;;;;;;;13.64;80.22;99123.02;1775648;80;25707;-58
2022/06/11 02:55:26;;;;;;;12.25;8.58;;;;;;;13.53;80.44;99127.23;1778688;80;25645;-58
2022/06/11 02:57:52;;;;;;;12.50;9.15;;;;;;;13.50;80.72;99123.75;1778831;80;25719;-62
2022/06/11 03:00:24;;;;;;;11.65;8.70;;;;;;;13.50;80.92;99125.92;1778799;80;25401;-58
2022/06/11 03:02:51;;;;;;;12.25;7.97;;;;;;;13.51;80.87;99133.63;1778173;80;27490;-58
2022/06/11 03:05:23;;;;;;;13.48;9.35;;;;;;;13.54;80.86;99135.73;1778336;80;25731;-58
2022/06/11 03:07:50;;;;;;;16.15;8.70;;;;;;;13.62;81.18;99134.13;1778662;80;25633;-58
2022/06/11 03:10:20;;;;;;;11.65;8.10;;;;;;;13.72;81.04;99129.67;1778642;80;26567;-58
2022/06/11 03:12:46;;;;;;;12.33;8.50;;;;;;;13.72;81.03;99135.18;1778867;80;25437;-58
2022/06/11 03:15:14;;;;;;;11.83;7.72;;;;;;;13.80;81.19;99135.77;1778844;80;28164;-58
2022/06/11 03:17:42;;;;;;;11.33;8.13;;;;;;;13.87;81.12;99139.39;1778683;80;25604;-59
2022/06/11 03:20:12;;;;;;;8.75;7.17;;;;;;;13.88;81.53;99134.70;1778691;80;25545;-58
2022/06/11 03:22:39;;;;;;;11.03;8.58;;;;;;;13.95;81.59;99134.20;1778851;80;25768;-58
2022/06/11 03:25:08;;;;;;;9.48;7.87;;;;;;;14.10;81.45;99133.70;1778650;80;25591;-59
2022/06/11 03:27:35;;;;;;;12.78;8.40;;;;;;;14.27;81.17;99135.64;1778458;80;27477;-58
2022/06/11 03:30:03;;;;;;;13.22;8.95;;;;;;;14.36;81.29;99132.06;1778685;80;25469;-59
2022/06/11 03:32:29;;;;;;;11.20;9.00;;;;;;;14.46;81.24;99139.98;1778653;80;25715;-60
2022/06/11 03:34:54;;;;;;;10.80;9.08;;;;;;;14.55;81.11;99133.06;1778586;80;25713;-62
2022/06/11 03:37:20;;;;;;;15.03;9.03;;;;;;;14.64;80.82;99139.36;1774815;80;26174;-60
2022/06/11 03:39:47;;;;;;;14.30;9.35;;;;;;;14.75;81.05;99134.30;1778410;80;27584;-61
2022/06/11 03:42:13;;;;;;;10.95;8.55;;;;;;;14.86;80.56;99128.44;1778641;80;25808;-59
2022/06/11 03:44:39;;;;;;;11.45;8.48;;;;;;;15.02;81.02;99134.20;1778665;80;25590;-58
2022/06/11 03:47:06;;;;;;;11.78;8.65;;;;;;;15.25;81.11;99134.73;1778729;80;26445;-59
2022/06/11 03:49:32;;;;;;;13.48;8.55;;;;;;;15.43;80.38;99140.96;1778761;80;25687;-58
2022/06/11 03:51:59;;;;;;;12.28;8.08;;;;;;;15.64;79.94;99142.95;1778593;80;27415;-58
2022/06/11 03:54:25;;;;;;;11.28;8.55;;;;;;;15.76;79.70;99145.53;1772492;80;25971;-58
2022/06/11 03:56:51;;;;;;;12.37;8.70;;;;;;;15.97;79.33;99142.00;1765469;80;25578;-58
2022/06/11 03:59:19;;;;;;;12.53;8.60;;;;;;;16.12;78.56;99141.36;1765670;80;25718;-59
2022/06/11 04:01:47;;;;;;;12.93;9.30;;;;;;;16.22;78.66;99146.23;1765434;81;25470;-58
2022/06/11 04:04:18;;;;;;;11.57;9.25;;;;;;;16.46;77.94;99148.27;1765179;80;27485;-59
2022/06/11 04:06:58;;;;;;;12.45;9.73;;;;;;;16.49;78.21;99146.80;1765360;80;25597;-61
2022/06/11 04:09:30;;;;;;;12.50;9.90;;;;;;;16.73;77.83;99147.99;1765482;81;25407;-58
2022/06/11 04:11:57;;;;;;;13.28;9.48;;;;;;;16.83;77.28;99150.88;1765541;80;26523;-62
2022/06/11 04:14:23;;;;;;;11.35;9.18;;;;;;;16.92;77.15;99151.58;1765509;80;25448;-60
2022/06/11 04:16:54;;;;;;;11.97;9.20;;;;;;;16.95;77.20;99149.50;1765572;80;28216;-60
2022/06/11 04:19:28;;;;;;;11.03;9.03;;;;;;;17.10;76.92;99149.42;1765584;80;25604;-63
2022/06/11 04:21:56;;;;;;;13.20;9.53;;;;;;;17.35;76.83;99154.96;1765161;81;25661;-62
2022/06/11 04:24:24;;;;;;;10.58;8.75;;;;;;;17.51;75.59;99158.42;1765467;80;25699;-62
2022/06/11 04:26:55;;;;;;;11.12;9.00;;;;;;;17.58;75.45;99153.69;1765520;80;25700;-58
2022/06/11 04:29:26;;;;;;;10.63;8.45;;;;;;;17.77;75.59;99160.80;1765419;81;28288;-58
2022/06/11 04:31:55;;;;;;;11.63;8.90;;;;;;;17.94;75.14;99160.29;1765580;80;25656;-58
2022/06/11 04:34:22;;;;;;;10.95;9.03;;;;;;;18.09;74.64;99161.51;1765528;80;25414;-59
2022/06/11 04:36:49;;;;;;;9.93;8.13;;;;;;;18.18;74.22;99159.42;1762941;80;27846;-58
2022/06/11 04:39:22;;;;;;;11.68;8.65;;;;;;;18.30;74.31;99162.72;1764134;80;25552;-58
2022/06/11 04:41:56;;;;;;;11.40;8.88;;;;;;;18.41;73.67;99167.18;1765248;80;27417;-58
2022/06/11 04:44:29;;;;;;;9.00;7.83;;;;;;;18.52;73.08;99167.48;1758615;80;25679;-59
2022/06/11 04:46:55;;;;;;;12.20;7.97;;;;;;;18.54;72.56;99169.89;1765166;80;25704;-58
2022/06/11 04:49:22;;;;;;;11.33;7.92;;;;;;;18.61;72.68;99168.69;1765134;81;25718;-59
2022/06/11 04:51:49;;;;;;;9.58;7.40;;;;;;;18.62;72.61;99166.73;1765444;80;25660;-63
2022/06/11 04:54:16;;;;;;;8.65;6.95;;;;;;;18.66;72.04;99174.56;1766136;80;27622;-63
2022/06/11 04:56:42;;;;;;;8.08;6.40;;;;;;;18.71;71.95;99176.27;1775038;80;27170;-61
2022/06/11 04:59:09;;;;;;;8.75;6.47;;;;;;;18.87;72.30;99175.70;1775271;79;25617;-63
2022/06/11 05:01:34;;;;;;;8.83;6.65;;;;;;;19.05;71.73;99169.78;1775529;80;26543;-63
2022/06/11 05:04:01;;;;;;;7.78;5.85;;;;;;;19.21;71.84;99170.39;1775896;79;25388;-62
2022/06/11 05:06:32;;;;;;;9.33;6.53;;;;;;;19.30;69.34;99166.27;1775477;80;27439;-64
2022/06/11 05:08:59;;;;;;;7.25;6.28;;;;;;;19.43;69.64;99171.13;1775434;79;25424;-61
2022/06/11 05:11:26;;;;;;;9.13;7.33;;;;;;;19.46;69.24;99167.41;1775563;79;25420;-59
2022/06/11 05:13:52;;;;;;;7.30;6.55;;;;;;;19.55;67.95;99173.58;1775597;79;25737;-59
2022/06/11 05:16:20;;;;;;;8.63;7.22;;;;;;;19.53;68.53;99173.94;1775567;79;25593;-58
2022/06/11 05:18:47;;;;;;;8.58;7.05;;;;;;;19.61;67.94;99174.91;1775621;80;27633;-58
2022/06/11 05:21:14;;;;;;;11.55;8.03;;;;;;;19.71;69.02;99173.52;1775709;79;25439;-59
2022/06/11 05:23:40;;;;;;;8.23;6.55;;;;;;;19.75;65.46;99175.00;1775632;79;25688;-63
2022/06/11 05:26:09;;;;;;;11.93;6.80;;;;;;;19.78;66.32;99166.72;1775287;79;26124;-61
2022/06/11 05:28:36;;;;;;;8.70;6.72;;;;;;;19.75;64.09;99167.45;1775660;79;25570;-60
2022/06/11 05:31:03;;;;;;;8.53;6.97;;;;;;;19.76;64.62;99173.25;1775539;79;27598;-59
2022/06/11 05:33:30;;;;;;;7.28;6.28;;;;;;;19.81;65.41;99170.77;1775532;79;25681;-59
2022/06/11 05:35:56;;;;;;;9.33;6.97;;;;;;;19.94;65.76;99170.03;1775061;80;25395;-59
2022/06/11 05:38:27;;;;;;;9.48;6.50;;;;;;;20.17;65.43;99177.11;1775413;80;25903;-59
2022/06/11 05:40:55;;;;;;;8.45;6.05;;;;;;;20.41;64.65;99172.39;1775683;79;25752;-59
2022/06/11 05:43:24;;;;;;;7.60;5.65;;;;;;;20.48;63.28;99168.14;1775658;79;27428;-60
2022/06/11 05:45:55;;;;;;;6.15;4.83;;;;;;;20.57;62.30;99172.89;1775495;80;25736;-63
2022/06/11 05:48:27;;;;;;;6.67;4.90;;;;;;;20.72;62.32;99170.37;1775336;79;25601;-59
2022/06/11 05:50:56;;;;;;;5.60;4.62;;;;;;;20.70;62.25;99166.58;1775620;79;25707;-65
2022/06/11 05:53:27;;;;;;;4.67;4.20;;;;;;;20.73;60.88;99169.20;1775543;79;25689;-59
2022/06/11 05:55:58;;;;;;;4.03;3.62;;;;;;;20.76;62.16;99163.70;1772753;80;27300;-59
2022/06/11 05:58:31;;;;;;;4.55;3.35;;;;;;;20.81;60.58;99169.52;1769144;80;25590;-64
2022/06/11 06:00:58;;;;;;;3.10;2.67;;;;;;;20.83;58.52;99170.55;1753465;80;25737;-62
2022/06/11 06:03:25;;;;;;;4.65;2.80;;;;;;;20.65;58.85;99176.61;1758844;80;25963;-63
2022/06/11 06:05:52;;;;;;;3.20;2.45;;;;;;;20.60;58.47;99176.33;1775710;80;25437;-64
2022/06/11 06:08:19;;;;;;;2.77;2.25;;;;;;;20.58;57.80;99180.05;1775169;80;27410;-60
2022/06/11 06:10:47;;;;;;;5.60;2.50;;;;;;;20.52;57.99;99179.56;1775376;80;25609;-59
2022/06/11 06:15:58;;;;;;;7.85;2.50;;;;;;;20.51;59.86;99185.50;1775207;80;25396;-60
2022/06/11 06:18:25;;;;;;;2.80;2.42;;;;;;;20.68;58.52;99184.23;1775640;80;25440;-60
2022/06/11 06:20:52;;;;;;;3.33;2.62;;;;;;;20.84;57.47;99178.53;1775302;80;27654;-59
2022/06/11 06:23:18;;;;;;;3.67;2.50;;;;;;;20.91;58.36;99186.25;1775303;80;25424;-60
2022/06/11 06:25:46;;;;;;;4.03;2.75;;;;;;;20.98;58.81;99189.16;1775391;80;25460;-62
2022/06/11 06:28:13;;;;;;;2.35;2.15;;;;;;;21.10;57.75;99192.94;1775414;80;25909;-59
2022/06/11 06:30:40;;;;;;;3.05;2.50;;;;;;;21.12;56.92;99189.98;1775406;80;25616;-59
2022/06/11 06:33:07;;;;;;;2.83;2.40;;;;;;;21.22;55.54;99186.36;1775177;80;27591;-59
2022/06/11 06:35:33;;;;;;;1.90;1.80;;;;;;;21.26;56.49;99189.42;1775222;80;25629;-61
2022/06/11 06:38:02;;;;;;;2.72;1.90;;;;;;;21.26;54.65;99189.42;1775608;80;25570;-59
2022/06/11 06:40:29;;;;;;;3.90;2.08;;;;;;;21.22;55.15;99188.56;1775182;80;25777;-59
2022/06/11 06:42:56;;;;;;;1.70;1.60;;;;;;;21.39;55.84;99183.65;1775353;80;25460;-59
2022/06/11 06:45:24;;;;;;;1.70;1.52;;;;;;;21.46;53.61;99184.33;1775437;80;27289;-60
2022/06/11 06:47:51;;;;;;;2.40;1.70;;;;;;;21.62;54.08;99190.55;1775255;80;25579;-59
2022/06/11 06:50:18;;;;;;;1.70;1.60;;;;;;;21.76;53.49;99201.75;1775658;80;25638;-59
2022/06/11 06:52:45;;;;;;;4.83;2.20;;;;;;;21.66;52.33;99201.18;1775251;80;25746;-59
2022/06/11 06:55:13;;;;;;;2.52;1.87;;;;;;;21.61;53.43;99199.28;1761928;80;25661;-60
2022/06/11 06:57:40;;;;;;;2.05;1.62;;;;;;;21.66;52.83;99194.78;1739426;82;27544;-60
2022/06/11 07:00:11;;;;;;;1.90;1.70;;;;;;;21.81;51.49;99198.61;1741425;81;25591;-60
2022/06/11 07:02:37;;;;;;;3.75;1.75;;;;;;;21.98;52.81;99202.02;1739819;82;25583;-59
2022/06/11 07:05:06;;;;;;;3.50;2.20;;;;;;;22.03;51.72;99206.70;1739826;82;25709;-59
2022/06/11 07:07:34;;;;;;;3.00;2.42;;;;;;;21.97;53.00;99201.81;1740006;82;25444;-62
2022/06/11 07:10:01;;;;;;;2.20;2.00;;;;;;;22.22;51.72;99198.55;1739744;82;27502;-60
2022/06/11 07:12:28;;;;;;;2.92;2.35;;;;;;;22.33;51.26;99198.68;1740767;81;25618;-60
2022/06/11 07:14:54;;;;;;;2.42;1.80;;;;;;;22.30;51.79;99205.81;1740762;82;25410;-59
2022/06/11 07:17:22;;;;;;;2.95;2.20;;;;;;;22.29;51.30;99200.84;1740671;82;25707;-60
2022/06/11 07:19:53;;;;;;;4.40;2.20;;;;;;;22.36;50.63;99208.48;1740770;82;25697;-60
2022/06/11 07:22:44;;;;;;;3.22;2.17;;;;;;;22.29;51.60;99202.81;1739377;81;27392;-60
2022/06/11 07:25:13;;;;;;;2.17;1.90;;;;;;;22.48;51.68;99206.63;1741863;81;25402;-59
2022/06/11 07:27:49;;;;;;;2.22;2.02;;;;;;;22.83;51.00;99205.43;1741821;81;25610;-60
2022/06/11 07:30:20;;;;;;;2.87;2.40;;;;;;;23.15;51.12;99215.30;1739677;81;25737;-59
2022/06/11 07:32:55;;;;;;;2.75;2.20;;;;;;;23.30;48.84;99218.42;1739565;81;25784;-60
2022/06/11 07:35:23;;;;;;;3.70;2.40;;;;;;;23.45;48.54;99216.36;1743697;81;27476;-59
2022/06/11 07:37:51;;;;;;;3.10;2.08;;;;;;;23.73;50.21;99219.95;1739942;81;25449;-59
2022/06/11 07:40:19;;;;;;;3.70;2.00;;;;;;;24.13;49.33;99221.56;1740307;82;25471;-60
2022/06/11 07:42:46;;;;;;;2.90;1.82;;;;;;;24.25;46.62;99220.44;1741415;81;25687;-60
2022/06/11 07:45:13;;;;;;;2.42;2.00;;;;;;;24.26;45.13;99217.84;1741573;81;25627;-62
2022/06/11 07:47:56;;;;;;;2.35;1.98;;;;;;;24.31;44.90;99218.05;1739924;81;27317;-60
2022/06/11 07:50:34;;;;;;;5.10;2.47;;;;;;;24.67;46.30;99222.36;1739766;81;25552;-62
2022/06/11 07:53:02;;;;;;;3.22;2.15;;;;;;;25.15;44.47;99221.87;1741634;81;25686;-61
2022/06/11 07:55:30;;;;;;;3.08;2.10;;;;;;;25.40;45.16;99214.06;1742513;81;26033;-57
2022/06/11 07:57:58;;;;;;;4.90;2.08;;;;;;;25.43;44.77;99217.47;1757120;80;25711;-57
2022/06/11 08:00:30;;;;;;;1.67;1.57;;;;;;;25.72;43.81;99223.66;1780522;80;27370;-57
2022/06/11 08:02:57;;;;;;;2.20;1.40;;;;;;;25.89;40.17;99218.41;1780337;80;25873;-61
2022/06/11 08:05:25;;;;;;;1.60;1.50;;;;;;;25.55;40.47;99219.64;1780330;80;25428;-58
2022/06/11 08:07:52;;;;;;;3.20;1.67;;;;;;;25.30;40.39;99225.47;1780501;80;25691;-62
2022/06/11 08:10:21;;;;;;;2.40;1.55;;;;;;;25.02;39.76;99225.67;1780671;80;25626;-57
2022/06/11 08:12:48;;;;;;;2.45;1.70;;;;;;;25.17;42.38;99220.06;1780556;80;27633;-58
2022/06/11 08:15:15;;;;;;;2.40;1.57;;;;;;;25.13;40.02;99220.05;1780131;80;25408;-56
2022/06/11 08:17:42;;;;;;;1.90;1.60;;;;;;;24.95;39.74;99218.64;1780463;80;25629;-56
2022/06/11 08:20:13;;;;;;;2.00;1.80;;;;;;;25.06;40.31;99218.66;1780178;80;26911;-56
2022/06/11 08:22:40;;;;;;;2.67;1.80;;;;;;;25.12;39.80;99216.25;1780208;80;25463;-57
2022/06/11 08:25:08;;;;;;;3.05;1.70;;;;;;;25.12;40.39;99213.44;1780469;80;27511;-61
2022/06/11 08:27:35;;;;;;;3.45;1.65;;;;;;;25.16;39.81;99207.25;1780300;80;25608;-56
2022/06/11 08:30:02;;;;;;;2.80;1.40;;;;;;;25.35;39.17;99210.83;1780358;80;25239;-59
2022/06/11 08:32:29;;;;;;;3.22;1.40;;;;;;;25.05;39.83;99221.27;1780350;80;25683;-58
2022/06/11 08:34:55;;;;;;;2.60;1.60;;;;;;;24.99;41.17;99215.26;1780392;80;25398;-59
2022/06/11 08:37:23;;;;;;;2.58;1.45;;;;;;;25.09;41.61;99215.05;1780559;80;27404;-59
2022/06/11 08:39:50;;;;;;;2.75;1.60;;;;;;;25.13;41.59;99219.27;1780149;80;25594;-59
2022/06/11 08:42:39;;;;;;;2.00;1.30;;;;;;;25.14;40.65;99215.25;1780536;80;25800;-60
2022/06/11 08:45:23;;;;;;;1.82;1.40;;;;;;;25.28;39.44;99206.05;1780864;80;25653;-59
2022/06/11 08:47:53;;;;;;;1.12;1.00;;;;;;;25.49;39.65;99205.22;1779751;80;25466;-59
2022/06/11 08:50:34;;;;;;;1.75;1.00;;;;;;;25.78;36.96;99201.58;1780548;80;27048;-59
2022/06/11 08:53:02;;;;;;;2.25;1.40;;;;;;;25.95;37.60;99208.36;1780591;80;25772;-59
2022/06/11 08:55:36;;;;;;;2.08;1.20;;;;;;;25.92;38.76;99204.37;1779851;80;25717;-59
2022/06/11 08:58:31;;;;;;;2.98;1.22;;;;;;;26.24;38.18;99211.66;1776568;80;25694;-60
2022/06/11 09:01:27;;;;;;;2.25;1.20;;;;;;;26.42;38.30;99200.36;1775468;80;25630;-59
2022/06/11 09:04:11;;;;;;;1.12;1.00;;;;;;;26.62;37.66;99202.06;1775000;80;27386;-59
2022/06/11 09:06:58;;;;;;;1.20;1.10;;;;;;;27.05;36.56;99205.22;1750762;80;25761;-60
2022/06/11 09:09:48;;;;;;;2.15;1.10;;;;;;;26.55;35.70;99202.92;1762760;80;25558;-62
2022/06/11 09:12:26;;;;;;;1.12;0.90;;;;;;;26.12;36.09;99205.30;1770148;80;25707;-60
2022/06/11 09:15:10;;;;;;;2.70;1.10;;;;;;;26.19;38.79;99201.05;1770031;80;25561;-60
2022/06/11 09:18:20;;;;;;;1.70;1.12;;;;;;;26.62;37.91;99204.09;1774979;80;28351;-61
2022/06/11 09:21:02;;;;;;;;;;;;;;;27.45;37.25;99197.66;1774417;80;25653;-58
2022/06/11 09:23:48;;;;;;;2.15;1.07;;;;;;;27.40;35.13;99196.10;1724417;80;25749;-58
2022/06/11 09:26:43;;;;;;;1.40;1.00;;;;;;;26.99;35.34;99198.44;1776226;80;25713;-58
2022/06/11 09:29:21;;;;;;;1.22;1.10;;;;;;;27.43;34.83;99196.67;1773919;80;25419;-58
2022/06/11 09:32:11;;;;;;;1.30;1.10;;;;;;;27.39;34.09;99192.48;1775335;80;27485;-58
2022/06/11 09:35:08;;;;;;;1.50;1.30;;;;;;;27.33;35.02;99187.11;1774978;80;33030;-59
2022/06/11 09:37:42;;;;;;;1.17;0.90;;;;;;;27.16;33.62;99177.61;1773696;80;25641;-58
2022/06/11 09:40:35;;;;;;;0.70;0.70;;;;;;;27.05;34.41;99182.72;1774840;80;25841;-59
2022/06/11 09:43:53;;;;;;;1.10;0.70;;;;;;;26.94;33.28;99190.39;1775190;80;26359;-58
2022/06/11 09:46:46;;;;;;;1.37;0.80;;;;;;;26.74;33.66;99190.94;1771980;80;27475;-58
2022/06/11 09:49:51;;;;;;;1.67;0.80;;;;;;;26.89;33.41;99184.64;1775174;80;25725;-58
2022/06/11 09:52:35;;;;;;;1.15;0.90;;;;;;;27.22;34.21;99179.36;1654227;86;25737;-59
2022/06/11 09:55:21;;;;;;;0.95;0.70;;;;;;;27.56;31.53;99186.48;1646238;86;25822;-58
2022/06/11 09:58:09;;;;;;;1.80;0.85;;;;;;;27.14;32.14;99175.84;1638564;87;25879;-58
2022/06/11 10:00:44;;;;;;;0.60;0.60;;;;;;;26.79;32.83;99181.27;1645051;87;27435;-58
2022/06/11 10:03:28;;;;;;;0.85;0.85;;;;;;;26.55;32.60;99181.03;1643034;87;25518;-58
2022/06/11 10:06:22;;;;;;;1.12;0.85;;;;;;;26.63;34.57;99176.98;1645086;87;25507;-58
2022/06/11 10:09:12;;;;;;;0.80;0.80;;;;;;;27.14;35.70;99175.20;1645501;87;25734;-58
2022/06/11 10:11:44;;;;;;;;;;;;;;;27.42;33.35;99173.36;1647431;87;25803;-59
2022/06/11 10:14:30;;;;;;;0.80;0.80;;;;;;;27.52;31.96;99170.85;1645252;87;25898;-59
2022/06/11 10:17:25;;;;;;;1.40;0.70;;;;;;;27.85;31.62;99170.51;1641592;87;25816;-59
2022/06/11 10:20:03;;;;;;;0.82;0.72;;;;;;;27.79;32.22;99168.77;1645464;87;25487;-58
2022/06/11 10:23:04;;;;;;;1.37;0.70;;;;;;;27.60;31.41;99172.98;1645285;87;25792;-58
2022/06/11 10:25:42;;;;;;;0.78;0.75;;;;;;;27.95;30.66;99159.75;1645268;87;25736;-58
2022/06/11 10:28:36;;;;;;;1.60;0.80;;;;;;;28.45;31.77;99162.33;1645339;87;27388;-58
2022/06/11 10:31:19;;;;;;;1.80;0.80;;;;;;;28.05;29.59;99165.05;1778011;80;25554;-57
2022/06/11 10:34:09;;;;;;;0.82;0.70;;;;;;;27.86;31.27;99154.61;1777390;80;25399;-58
2022/06/11 10:36:39;;;;;;;;;;;;;;;27.92;30.52;99158.55;1763649;80;26610;-57
2022/06/11 10:39:26;;;;;;;1.50;0.82;;;;;;;28.03;31.46;99161.23;1764226;80;25417;-59
2022/06/11 10:42:00;;;;;;;1.07;0.82;;;;;;;28.65;30.90;99153.39;1771821;80;27646;-58
2022/06/11 10:44:44;;;;;;;0.93;0.60;;;;;;;29.18;31.02;99140.25;1753619;80;25454;-58
2022/06/11 10:47:34;;;;;;;1.50;1.02;;;;;;;29.44;29.83;99146.84;1775237;80;25610;-57
2022/06/11 10:50:17;;;;;;;1.40;1.10;;;;;;;29.11;29.16;99142.40;1773737;80;32904;-57
2022/06/11 10:53:18;;;;;;;2.08;0.88;;;;;;;28.74;28.31;99146.39;1774129;80;25669;-57
2022/06/11 10:56:22;;;;;;;0.82;0.80;;;;;;;28.48;30.07;99148.20;1776180;80;27448;-59
2022/06/11 10:59:08;;;;;;;3.27;1.00;;;;;;;29.04;29.56;99142.70;1769174;81;25729;-59
2022/06/11 11:01:51;;;;;;;1.02;0.93;;;;;;;28.95;29.19;99143.87;1768624;81;25684;-59
2022/06/11 11:04:44;;;;;;;1.02;0.93;;;;;;;29.58;28.99;99142.20;1769336;80;26554;-59
2022/06/11 11:07:20;;;;;;;2.22;0.90;;;;;;;28.86;28.79;99142.17;1757684;81;25716;-58
2022/06/11 11:09:48;;;;;;;1.60;1.30;;;;;;;29.39;28.25;99139.67;1771429;80;27506;-59
2022/06/11 11:12:20;;;;;;;1.00;0.90;;;;;;;30.07;29.08;99128.88;1769070;81;25717;-58
2022/06/11 11:14:52;;;;;;;1.65;0.78;;;;;;;30.39;29.15;99129.44;1768938;81;25638;-59
2022/06/11 11:17:22;;;;;;;0.80;0.80;;;;;;;30.32;28.35;99136.05;1765426;81;25720;-59
2022/06/11 11:22:41;;;;;;;1.20;0.90;;;;;;;30.60;27.32;99134.41;1769150;81;27397;-61
2022/06/11 11:25:15;;;;;;;0.82;0.80;;;;;;;30.83;26.09;99122.77;1768624;81;25668;-58
2022/06/11 11:27:46;;;;;;;1.82;0.80;;;;;;;30.47;26.59;99135.70;1768713;81;25641;-60
2022/06/11 11:30:21;;;;;;;1.05;0.68;;;;;;;29.61;26.78;99136.47;1769071;81;25629;-59
2022/06/11 11:32:48;;;;;;;0.95;0.70;;;;;;;29.42;25.94;99130.33;1769174;81;25672;-59
2022/06/11 11:35:28;;;;;;;1.27;0.80;;;;;;;29.45;26.02;99128.69;1770074;81;27391;-59
2022/06/11 11:38:15;;;;;;;1.37;0.55;;;;;;;29.70;27.20;99125.23;1770001;81;25563;-63
2022/06/11 11:40:58;;;;;;;0.90;0.75;;;;;;;29.78;25.27;99116.77;1769994;81;25644;-57
2022/06/11 11:43:35;;;;;;;1.50;0.80;;;;;;;29.14;26.22;99109.91;1770155;81;25800;-56
2022/06/11 11:46:19;;;;;;;2.37;0.85;;;;;;;28.73;27.80;99114.59;1770277;81;25713;-56
2022/06/11 11:48:53;;;;;;;0.93;0.60;;;;;;;28.89;28.00;99105.45;1769188;81;28625;-56
2022/06/11 11:51:36;;;;;;;0.70;0.70;;;;;;;29.13;27.57;99108.29;1770077;81;25438;-56
2022/06/11 11:54:17;;;;;;;1.05;0.70;;;;;;;29.90;28.59;99104.81;1769852;81;25664;-56
2022/06/11 11:56:49;;;;;;;1.35;0.78;;;;;;;30.46;27.55;99105.23;1772609;80;25778;-56
2022/06/11 11:59:39;;;;;;;1.02;0.70;;;;;;;30.57;26.78;99097.11;1777705;80;25593;-56
2022/06/11 12:02:26;;;;;;;0.93;0.70;;;;;;;30.28;27.73;99100.00;1772309;80;27398;-57
2022/06/11 12:05:04;;;;;;;1.10;0.70;;;;;;;30.47;27.89;99096.12;1774101;80;25459;-57
2022/06/11 12:07:38;;;;;;;0.70;0.70;;;;;;;30.85;26.91;99094.84;1774638;80;25659;-57
2022/06/11 12:10:22;;;;;;;1.52;0.80;;;;;;;30.95;25.94;99099.42;1771376;80;26429;-56